createdAt,value
2023-02-27T00:01:34.586Z,74.28
2023-02-27T00:04:01.241Z,74.82
2023-02-27T00:06:28.306Z,76.35
2023-02-27T00:08:54.779Z,76.86
2023-02-27T00:11:21.235Z,76.41
2023-02-27T00:13:47.971Z,74.72
2023-02-27T00:16:14.451Z,72.57
2023-02-27T00:18:41.069Z,71.45
2023-02-27T00:21:07.452Z,71.64
2023-02-27T00:23:33.885Z,72.83
2023-02-27T00:26:01.025Z,73.58
2023-02-27T00:28:27.812Z,73.54
2023-02-27T00:30:54.581Z,72.58
2023-02-27T00:33:21.186Z,74.53
2023-02-27T00:36:00.362Z,75.41
2023-02-27T00:38:26.796Z,74.07
2023-02-27T00:40:53.250Z,70.71
2023-02-27T00:43:19.771Z,71.34
2023-02-27T00:45:47.670Z,73.42
2023-02-27T00:48:14.276Z,73.11
2023-02-27T00:50:40.639Z,71.45
2023-02-27T00:53:07.007Z,70.53
2023-02-27T00:55:33.603Z,67.39
2023-02-27T00:58:00.006Z,65.09
2023-02-27T01:00:26.435Z,62.81
2023-02-27T01:02:52.864Z,60.42
2023-02-27T01:05:19.441Z,60.47
2023-02-27T01:07:45.813Z,59.99
2023-02-27T01:10:12.486Z,62.43
2023-02-27T01:12:39.270Z,61.97
2023-02-27T01:15:06.406Z,59.51
2023-02-27T01:17:32.952Z,59.19
2023-02-27T01:19:59.474Z,61.59
2023-02-27T01:22:25.864Z,63.93
2023-02-27T01:24:52.446Z,65.59
2023-02-27T01:27:18.818Z,65.67
2023-02-27T01:29:45.194Z,66.12
2023-02-27T01:32:11.880Z,64.30
2023-02-27T01:34:38.295Z,62.68
2023-02-27T01:37:04.692Z,63.09
2023-02-27T01:39:32.813Z,64.29
2023-02-27T01:41:59.781Z,65.59
2023-02-27T01:44:27.038Z,68.31
2023-02-27T01:46:53.374Z,70.62
2023-02-27T01:49:32.510Z,71.45
2023-02-27T01:52:05.614Z,70.95
2023-02-27T01:54:34.927Z,69.77
2023-02-27T01:57:03.142Z,66.19
2023-02-27T01:59:29.627Z,63.42
2023-02-27T02:01:56.254Z,61.83
2023-02-27T02:04:26.331Z,61.97
2023-02-27T02:06:59.928Z,63.68
2023-02-27T02:09:26.405Z,67.43
2023-02-27T02:11:53.046Z,67.60
2023-02-27T02:14:19.551Z,69.07
2023-02-27T02:16:54.662Z,69.05
2023-02-27T02:19:46.120Z,70.38
2023-02-27T02:22:12.635Z,71.65
2023-02-27T02:25:13.274Z,70.16
2023-02-27T02:27:58.500Z,69.66
2023-02-27T02:31:03.447Z,70.98
2023-02-27T02:33:42.042Z,74.69
2023-02-27T02:36:42.429Z,77.22
2023-02-27T02:39:29.313Z,76.45
2023-02-27T02:42:05.620Z,75.55
2023-02-27T02:44:51.202Z,73.29
2023-02-27T02:47:23.086Z,72.16
2023-02-27T02:49:55.499Z,72.22
2023-02-27T02:52:28.103Z,72.22
2023-02-27T02:55:08.415Z,69.69
2023-02-27T02:57:45.604Z,67.03
2023-02-27T03:00:16.109Z,65.56
2023-02-27T03:02:54.173Z,66.55
2023-02-27T03:05:33.117Z,67.48
2023-02-27T03:08:05.009Z,67.54
2023-02-27T03:10:40.393Z,66.50
2023-02-27T03:13:17.904Z,63.60
2023-02-27T03:15:47.440Z,62.09
2023-02-27T03:18:19.641Z,59.32
2023-02-27T03:20:49.469Z,59.17
2023-02-27T03:23:18.182Z,58.58
2023-02-27T03:25:46.277Z,58.21
2023-02-27T03:28:18.779Z,57.36
2023-02-27T03:30:49.637Z,54.78
2023-02-27T03:33:40.157Z,51.71
2023-02-27T03:36:11.975Z,49.73
2023-02-27T03:38:41.363Z,50.48
2023-02-27T03:41:20.128Z,53.86
2023-02-27T03:43:51.420Z,55.77
2023-02-27T03:46:21.011Z,57.76
2023-02-27T03:48:47.453Z,57.10
2023-02-27T03:51:15.877Z,54.44
2023-02-27T03:54:10.946Z,57.12
2023-02-27T03:57:01.291Z,59.26
2023-02-27T03:59:28.238Z,62.33
2023-02-27T04:01:55.534Z,66.73
2023-02-27T04:04:22.063Z,69.00
2023-02-27T04:07:10.643Z,70.12
2023-02-27T04:10:07.809Z,71.54
2023-02-27T04:13:03.397Z,73.09
2023-02-27T04:16:07.102Z,73.44
2023-02-27T04:18:51.249Z,73.19
2023-02-27T04:21:59.346Z,71.20
2023-02-27T04:24:34.576Z,69.71
2023-02-27T04:27:38.601Z,67.38
2023-02-27T04:30:16.405Z,67.24
2023-02-27T04:32:53.416Z,69.80
2023-02-27T04:35:25.846Z,72.48
2023-02-27T04:38:06.427Z,72.20
2023-02-27T04:40:37.433Z,70.92
2023-02-27T04:43:04.020Z,67.00
2023-02-27T04:45:30.414Z,62.17
2023-02-27T04:48:00.561Z,58.75
2023-02-27T04:50:52.207Z,49.47
2023-02-27T04:53:39.506Z,41.37
2023-02-27T04:56:09.658Z,39.90
2023-02-27T04:58:45.322Z,45.73
2023-02-27T05:01:15.112Z,50.35
2023-02-27T05:03:47.435Z,53.57
2023-02-27T05:06:14.582Z,52.55
2023-02-27T05:08:58.902Z,50.57
2023-02-27T05:11:29.824Z,53.15
2023-02-27T05:14:04.060Z,55.91
2023-02-27T05:16:39.013Z,56.09
2023-02-27T05:19:05.433Z,57.58
2023-02-27T05:21:41.140Z,57.14
2023-02-27T05:24:33.079Z,53.72
2023-02-27T05:27:31.423Z,50.65
2023-02-27T05:30:26.045Z,48.57
2023-02-27T05:32:56.826Z,47.33
2023-02-27T05:35:28.923Z,49.07
2023-02-27T05:37:59.510Z,51.16
2023-02-27T05:40:30.777Z,51.70
2023-02-27T05:43:13.034Z,53.24
2023-02-27T05:45:40.750Z,56.71
2023-02-27T05:48:35.790Z,59.76
2023-02-27T05:51:02.154Z,61.78
2023-02-27T05:53:30.731Z,61.66
2023-02-27T05:55:58.906Z,62.77
2023-02-27T05:58:28.356Z,62.74
2023-02-27T06:00:56.775Z,62.94
2023-02-27T06:03:23.177Z,62.72
2023-02-27T06:05:50.079Z,59.68
2023-02-27T06:08:16.431Z,55.47
2023-02-27T06:10:42.806Z,50.83
2023-02-27T06:13:09.145Z,45.82
2023-02-27T06:15:35.700Z,43.33
2023-02-27T06:18:02.094Z,39.14
2023-02-27T06:20:28.650Z,37.32
2023-02-27T06:22:55.045Z,36.25
2023-02-27T06:25:22.235Z,18.90
2023-02-27T06:27:48.625Z,10.01
2023-02-27T06:30:15.188Z,3.68
2023-02-27T06:32:41.544Z,0.00
2023-02-27T06:35:08.522Z,0.00
2023-02-27T06:37:34.862Z,0.00
2023-02-27T06:40:01.212Z,0.00
2023-02-27T06:42:27.602Z,0.00
2023-02-27T06:44:54.027Z,0.00
2023-02-27T06:47:20.392Z,0.00
2023-02-27T06:49:46.784Z,0.00
2023-02-27T06:52:13.170Z,0.00
2023-02-27T06:54:39.601Z,0.00
2023-02-27T06:57:06.046Z,0.00
2023-02-27T06:59:32.428Z,0.00
2023-02-27T07:01:59.193Z,0.00
2023-02-27T07:04:25.668Z,0.00
2023-02-27T07:07:32.447Z,0.00
2023-02-27T07:09:39.431Z,0.00
2023-02-27T07:12:06.335Z,0.00
2023-02-27T07:14:32.749Z,0.00
2023-02-27T07:17:03.119Z,0.00
2023-02-27T07:19:29.917Z,0.00
2023-02-27T07:21:56.299Z,1.05
2023-02-27T07:24:22.732Z,2.98
2023-02-27T07:26:49.257Z,2.85
2023-02-27T07:29:15.840Z,2.69
2023-02-27T07:31:42.202Z,2.80
2023-02-27T07:34:11.885Z,2.55
2023-02-27T07:36:38.680Z,2.73
2023-02-27T07:39:05.773Z,2.68
2023-02-27T07:41:32.140Z,2.74
2023-02-27T07:43:58.503Z,3.23
2023-02-27T07:46:27.367Z,3.33
2023-02-27T07:48:54.338Z,3.56
2023-02-27T07:51:20.764Z,4.17
2023-02-27T07:53:47.150Z,4.66
2023-02-27T07:56:13.923Z,5.40
2023-02-27T07:58:40.279Z,6.70
2023-02-27T08:01:06.817Z,7.37
2023-02-27T08:03:33.189Z,7.87
2023-02-27T08:06:02.129Z,8.40
2023-02-27T08:08:29.561Z,9.75
2023-02-27T08:10:56.190Z,9.68
2023-02-27T08:13:42.258Z,9.36
2023-02-27T08:16:09.218Z,9.13
2023-02-27T08:18:35.580Z,8.69
2023-02-27T08:21:05.014Z,8.75
2023-02-27T08:23:32.326Z,8.80
2023-02-27T08:25:58.891Z,7.88
2023-02-27T08:28:25.346Z,8.01
2023-02-27T08:30:51.733Z,7.86
2023-02-27T08:33:18.131Z,8.12
2023-02-27T08:35:44.690Z,7.48
2023-02-27T08:38:11.101Z,7.59
2023-02-27T08:40:37.662Z,7.89
2023-02-27T08:43:04.166Z,7.90
2023-02-27T08:45:30.738Z,11.15
2023-02-27T08:47:57.453Z,11.78
2023-02-27T08:50:23.866Z,12.72
2023-02-27T08:52:50.458Z,12.24
2023-02-27T08:55:16.929Z,12.47
2023-02-27T08:57:43.526Z,11.63
2023-02-27T09:00:10.745Z,7.22
2023-02-27T09:02:37.218Z,6.51
2023-02-27T09:05:03.806Z,5.88
2023-02-27T09:07:30.425Z,6.14
2023-02-27T09:09:56.815Z,6.68
2023-02-27T09:12:23.360Z,4.59
2023-02-27T09:14:49.725Z,3.09
2023-02-27T09:17:16.386Z,3.96
2023-02-27T09:19:42.783Z,4.97
2023-02-27T09:22:09.143Z,6.35
2023-02-27T09:24:36.404Z,6.86
2023-02-27T09:27:02.845Z,5.75
2023-02-27T09:29:29.455Z,6.66
2023-02-27T09:31:55.944Z,6.08
2023-02-27T09:34:22.531Z,7.16
2023-02-27T09:36:48.944Z,8.04
2023-02-27T09:39:15.515Z,18.38
2023-02-27T09:41:54.208Z,16.97
2023-02-27T09:44:45.246Z,18.48
2023-02-27T09:47:27.673Z,19.53
2023-02-27T09:50:02.583Z,18.26
2023-02-27T09:52:30.167Z,21.16
2023-02-27T09:54:56.699Z,25.33
2023-02-27T09:57:38.384Z,27.08
2023-02-27T10:00:19.544Z,28.22
2023-02-27T10:02:58.147Z,29.11
2023-02-27T10:05:41.234Z,30.37
2023-02-27T10:08:35.764Z,42.86
2023-02-27T10:11:07.468Z,51.12
2023-02-27T10:14:18.889Z,54.94
2023-02-27T10:16:46.274Z,57.38
2023-02-27T10:19:23.865Z,80.17
2023-02-27T10:21:50.925Z,93.51
2023-02-27T10:24:30.472Z,100.00
2023-02-27T10:26:58.042Z,100.00
2023-02-27T10:29:31.437Z,100.00
2023-02-27T10:32:07.216Z,100.00
2023-02-27T10:34:33.686Z,100.00
2023-02-27T10:37:01.425Z,100.00
2023-02-27T10:39:29.464Z,100.00
2023-02-27T10:41:57.381Z,100.00
2023-02-27T10:44:24.532Z,100.00
2023-02-27T10:46:52.122Z,100.00
2023-02-27T10:49:20.382Z,100.00
2023-02-27T10:52:05.912Z,100.00
2023-02-27T10:54:32.383Z,100.00
2023-02-27T10:57:01.047Z,100.00
2023-02-27T10:59:40.475Z,100.00
2023-02-27T11:02:39.704Z,100.00
2023-02-27T11:05:16.378Z,100.00
2023-02-27T11:07:42.918Z,100.00
2023-02-27T11:10:22.934Z,100.00
2023-02-27T11:13:03.815Z,100.00
2023-02-27T11:15:35.369Z,100.00
2023-02-27T11:18:38.164Z,100.00
2023-02-27T11:21:23.531Z,100.00
2023-02-27T11:23:50.950Z,100.00
2023-02-27T11:26:24.910Z,100.00
2023-02-27T11:29:11.552Z,100.00
2023-02-27T11:31:38.339Z,100.00
2023-02-27T11:34:05.108Z,100.00
2023-02-27T11:36:41.957Z,100.00
2023-02-27T11:39:22.471Z,100.00
2023-02-27T11:41:48.834Z,100.00
2023-02-27T11:44:17.215Z,100.00
2023-02-27T11:46:49.030Z,100.00
2023-02-27T11:49:21.630Z,100.00
2023-02-27T11:51:57.874Z,100.00
2023-02-27T11:55:00.670Z,100.00
2023-02-27T11:57:30.481Z,100.00
2023-02-27T12:00:06.836Z,100.00
2023-02-27T12:02:46.528Z,100.00
2023-02-27T12:05:18.107Z,100.00
2023-02-27T12:07:46.868Z,100.00
2023-02-27T12:10:18.685Z,100.00
2023-02-27T12:13:11.205Z,100.00
2023-02-27T12:15:42.190Z,100.00
2023-02-27T12:18:30.828Z,100.00
2023-02-27T12:21:40.510Z,100.00
2023-02-27T12:24:38.062Z,100.00
2023-02-27T12:27:13.494Z,100.00
2023-02-27T12:29:41.864Z,100.00
2023-02-27T12:32:31.521Z,100.00
2023-02-27T12:35:19.950Z,100.00
2023-02-27T12:37:46.325Z,100.00
2023-02-27T12:40:16.997Z,100.00
2023-02-27T12:42:49.513Z,100.00
2023-02-27T12:45:43.490Z,100.00
2023-02-27T12:48:23.092Z,100.00
2023-02-27T12:51:12.402Z,100.00
2023-02-27T12:54:06.995Z,100.00
2023-02-27T12:56:41.106Z,100.00
2023-02-27T12:59:22.949Z,100.00
2023-02-27T13:01:58.534Z,100.00
2023-02-27T13:04:42.725Z,100.00
2023-02-27T13:07:24.416Z,100.00
2023-02-27T13:09:53.604Z,100.00
2023-02-27T13:12:19.926Z,100.00
2023-02-27T13:14:47.549Z,100.00
2023-02-27T13:17:23.424Z,100.00
2023-02-27T13:20:12.674Z,100.00
2023-02-27T13:22:43.939Z,100.00
2023-02-27T13:25:14.124Z,100.00
2023-02-27T13:27:47.667Z,100.00
2023-02-27T13:30:16.323Z,100.00
2023-02-27T13:33:01.920Z,100.00
2023-02-27T13:35:38.804Z,100.00
2023-02-27T13:38:32.331Z,100.00
2023-02-27T13:41:24.324Z,100.00
2023-02-27T13:43:54.932Z,100.00
2023-02-27T13:46:33.775Z,100.00
2023-02-27T13:49:09.162Z,100.00
2023-02-27T13:51:35.615Z,100.00
2023-02-27T13:54:14.242Z,100.00
2023-02-27T13:56:59.762Z,100.00
2023-02-27T13:59:34.149Z,100.00
2023-02-27T14:02:04.881Z,100.00
2023-02-27T14:04:33.044Z,100.00
2023-02-27T14:07:21.315Z,100.00
2023-02-27T14:09:52.319Z,100.00
2023-02-27T14:12:45.098Z,100.00
2023-02-27T14:15:21.466Z,100.00
2023-02-27T14:17:50.950Z,100.00
2023-02-27T14:20:29.840Z,100.00
2023-02-27T14:23:15.092Z,100.00
2023-02-27T14:25:44.391Z,100.00
2023-02-27T14:28:21.167Z,100.00
2023-02-27T14:31:08.891Z,100.00
2023-02-27T14:33:48.495Z,100.00
2023-02-27T14:36:26.097Z,100.00
2023-02-27T14:38:57.677Z,100.00
2023-02-27T14:41:27.355Z,100.00
2023-02-27T14:43:57.548Z,100.00
2023-02-27T14:46:31.443Z,100.00
2023-02-27T14:49:02.665Z,100.00
2023-02-27T14:51:33.706Z,100.00
2023-02-27T14:54:06.429Z,100.00
2023-02-27T14:56:33.347Z,100.00
2023-02-27T14:59:05.075Z,100.00
2023-02-27T15:01:35.143Z,100.00
2023-02-27T15:04:01.781Z,100.00
2023-02-27T15:06:34.306Z,100.00
2023-02-27T15:09:00.802Z,100.00
2023-02-27T15:11:27.722Z,100.00
2023-02-27T15:14:02.237Z,100.00
2023-02-27T15:16:30.797Z,100.00
2023-02-27T15:19:03.862Z,100.00
2023-02-27T15:21:34.006Z,100.00
2023-02-27T15:24:05.192Z,100.00
2023-02-27T15:26:40.798Z,100.00
2023-02-27T15:29:08.026Z,100.00
2023-02-27T15:31:34.587Z,100.00
2023-02-27T15:34:01.663Z,100.00
2023-02-27T15:36:33.255Z,100.00
2023-02-27T15:39:20.410Z,100.00
2023-02-27T15:41:49.652Z,100.00
2023-02-27T15:44:17.258Z,100.00
2023-02-27T15:46:44.509Z,100.00
2023-02-27T15:49:15.763Z,100.00
2023-02-27T15:51:42.247Z,100.00
2023-02-27T15:54:09.777Z,100.00
2023-02-27T15:56:36.956Z,100.00
2023-02-27T15:59:03.315Z,100.00
2023-02-27T16:01:34.822Z,100.00
2023-02-27T16:04:05.922Z,100.00
2023-02-27T16:06:37.566Z,100.00
2023-02-27T16:09:19.219Z,100.00
2023-02-27T16:11:45.603Z,100.00
2023-02-27T16:14:36.336Z,100.00
2023-02-27T16:17:02.729Z,100.00
2023-02-27T16:19:31.000Z,100.00
2023-02-27T16:22:13.085Z,100.00
2023-02-27T16:24:39.466Z,100.00
2023-02-27T16:27:05.857Z,100.00
2023-02-27T16:29:44.151Z,100.00
2023-02-27T16:32:30.737Z,100.00
2023-02-27T16:35:20.547Z,100.00
2023-02-27T16:37:47.943Z,100.00
2023-02-27T16:40:19.330Z,100.00
2023-02-27T16:42:46.176Z,100.00
2023-02-27T16:45:17.352Z,100.00
2023-02-27T16:47:44.000Z,100.00
2023-02-27T16:50:26.008Z,100.00
2023-02-27T16:52:52.424Z,100.00
2023-02-27T16:55:18.765Z,100.00
2023-02-27T16:57:45.337Z,100.00
2023-02-27T17:00:15.806Z,100.00
2023-02-27T17:02:42.989Z,100.00
2023-02-27T17:05:09.788Z,100.00
2023-02-27T17:07:36.287Z,100.00
2023-02-27T17:10:02.817Z,100.00
2023-02-27T17:12:29.392Z,100.00
2023-02-27T17:14:56.273Z,100.00
2023-02-27T17:17:22.718Z,100.00
2023-02-27T17:19:49.331Z,100.00
2023-02-27T17:22:15.776Z,100.00
2023-02-27T17:24:42.405Z,100.00
2023-02-27T17:27:09.568Z,100.00
2023-02-27T17:29:37.722Z,100.00
2023-02-27T17:32:04.380Z,100.00
2023-02-27T17:34:30.846Z,100.00
2023-02-27T17:36:57.201Z,100.00
2023-02-27T17:39:23.610Z,100.00
2023-02-27T17:41:52.858Z,100.00
2023-02-27T17:44:19.258Z,100.00
2023-02-27T17:46:45.613Z,100.00
2023-02-27T17:49:12.230Z,100.00
2023-02-27T17:51:38.658Z,100.00
2023-02-27T17:54:05.427Z,100.00
2023-02-27T17:56:32.099Z,100.00
2023-02-27T17:58:58.702Z,100.00
2023-02-27T18:01:25.974Z,100.00
2023-02-27T18:03:54.243Z,100.00
2023-02-27T18:06:21.006Z,100.00
2023-02-27T18:08:48.012Z,100.00
2023-02-27T18:11:16.652Z,100.00
2023-02-27T18:13:43.227Z,100.00
2023-02-27T18:16:09.902Z,100.00
2023-02-27T18:18:40.224Z,100.00
2023-02-27T18:21:12.023Z,100.00
2023-02-27T18:23:38.432Z,100.00
2023-02-27T18:26:04.942Z,100.00
2023-02-27T18:28:31.337Z,100.00
2023-02-27T18:30:57.761Z,100.00
2023-02-27T18:33:24.358Z,100.00
2023-02-27T18:35:50.844Z,100.00
2023-02-27T18:38:17.344Z,100.00
2023-02-27T18:40:44.010Z,100.00
2023-02-27T18:43:10.765Z,100.00
2023-02-27T18:45:37.565Z,100.00
2023-02-27T18:48:04.100Z,100.00
2023-02-27T18:50:30.790Z,100.00
2023-02-27T18:52:58.618Z,100.00
2023-02-27T18:55:25.071Z,100.00
2023-02-27T18:57:51.424Z,100.00
2023-02-27T19:00:18.990Z,100.00
2023-02-27T19:02:45.498Z,100.00
2023-02-27T19:05:12.066Z,100.00
2023-02-27T19:07:38.599Z,100.00
2023-02-27T19:10:06.155Z,100.00
2023-02-27T19:12:32.534Z,100.00
2023-02-27T19:14:58.995Z,100.00
2023-02-27T19:17:25.748Z,100.00
2023-02-27T19:19:55.212Z,100.00
2023-02-27T19:22:21.669Z,100.00
2023-02-27T19:24:49.710Z,100.00
2023-02-27T19:27:17.125Z,100.00
2023-02-27T19:29:43.623Z,100.00
2023-02-27T19:32:10.455Z,100.00
2023-02-27T19:34:37.925Z,100.00
2023-02-27T19:37:04.328Z,100.00
2023-02-27T19:39:30.746Z,100.00
2023-02-27T19:41:57.440Z,100.00
2023-02-27T19:44:23.857Z,100.00
2023-02-27T19:46:52.110Z,100.00
2023-02-27T19:49:18.883Z,100.00
2023-02-27T19:51:45.255Z,100.00
2023-02-27T19:54:15.764Z,100.00
2023-02-27T19:56:42.231Z,100.00
2023-02-27T19:59:09.673Z,100.00
2023-02-27T20:01:38.740Z,100.00
2023-02-27T20:04:06.013Z,100.00
2023-02-27T20:06:33.709Z,100.00
2023-02-27T20:09:00.224Z,100.00
2023-02-27T20:11:33.017Z,100.00
2023-02-27T20:13:59.752Z,100.00
2023-02-27T20:16:28.893Z,100.00
2023-02-27T20:18:55.810Z,100.00
2023-02-27T20:21:23.139Z,100.00
2023-02-27T20:23:51.519Z,100.00
2023-02-27T20:26:19.098Z,100.00
2023-02-27T20:28:46.131Z,100.00
2023-02-27T20:31:12.907Z,100.00
2023-02-27T20:33:40.044Z,100.00
2023-02-27T20:36:07.541Z,100.00
2023-02-27T20:38:34.135Z,100.00
2023-02-27T20:41:00.813Z,100.00
2023-02-27T20:43:30.364Z,100.00
2023-02-27T20:45:56.941Z,100.00
2023-02-27T20:48:23.458Z,100.00
2023-02-27T20:50:49.850Z,100.00
2023-02-27T20:53:16.209Z,100.00
2023-02-27T20:55:49.290Z,100.00
2023-02-27T20:58:16.031Z,100.00
2023-02-27T21:00:42.507Z,100.00
2023-02-27T21:03:08.889Z,100.00
2023-02-27T21:05:35.236Z,100.00
2023-02-27T21:08:01.617Z,100.00
2023-02-27T21:10:27.980Z,100.00
2023-02-27T21:12:54.392Z,100.00
2023-02-27T21:15:20.734Z,100.00
2023-02-27T21:17:47.115Z,100.00
2023-02-27T21:20:13.896Z,100.00
2023-02-27T21:22:40.418Z,100.00
2023-02-27T21:25:07.063Z,100.00
2023-02-27T21:27:33.459Z,100.00
2023-02-27T21:29:59.832Z,100.00
2023-02-27T21:32:26.440Z,100.00
2023-02-27T21:34:52.826Z,100.00
2023-02-27T21:37:19.164Z,100.00
2023-02-27T21:39:50.398Z,100.00
2023-02-27T21:42:16.757Z,100.00
2023-02-27T21:44:43.747Z,100.00
2023-02-27T21:47:10.421Z,100.00
2023-02-27T21:49:37.199Z,100.00
2023-02-27T21:52:03.612Z,100.00
2023-02-27T21:54:30.033Z,100.00
2023-02-27T21:56:58.741Z,100.00
2023-02-27T21:59:25.902Z,100.00
2023-02-27T22:01:52.293Z,100.00
2023-02-27T22:04:19.387Z,100.00
2023-02-27T22:06:46.348Z,100.00
2023-02-27T22:09:12.776Z,100.00
2023-02-27T22:11:40.751Z,100.00
2023-02-27T22:14:07.430Z,100.00
2023-02-27T22:16:34.034Z,100.00
2023-02-27T22:19:05.028Z,100.00
2023-02-27T22:21:32.222Z,100.00
2023-02-27T22:23:58.847Z,100.00
2023-02-27T22:26:26.372Z,100.00
2023-02-27T22:28:52.775Z,100.00
2023-02-27T22:31:20.933Z,100.00
2023-02-27T22:33:48.528Z,100.00
2023-02-27T22:36:17.277Z,100.00
2023-02-27T22:38:43.651Z,100.00
2023-02-27T22:41:14.728Z,100.00
2023-02-27T22:43:41.243Z,100.00
2023-02-27T22:46:08.217Z,100.00
2023-02-27T22:48:35.070Z,100.00
2023-02-27T22:51:19.661Z,100.00
2023-02-27T22:53:46.629Z,100.00
2023-02-27T22:56:14.607Z,100.00
2023-02-27T22:58:41.637Z,100.00
2023-02-27T23:01:16.385Z,100.00
2023-02-27T23:03:43.763Z,100.00
2023-02-27T23:06:15.175Z,100.00
2023-02-27T23:08:42.484Z,100.00
2023-02-27T23:11:09.737Z,100.00
2023-02-27T23:13:36.519Z,100.00
2023-02-27T23:16:08.136Z,100.00
2023-02-27T23:18:34.733Z,100.00
2023-02-27T23:21:03.380Z,100.00
2023-02-27T23:23:29.929Z,100.00
2023-02-27T23:25:56.912Z,100.00
2023-02-27T23:28:23.252Z,100.00
2023-02-27T23:30:50.032Z,100.00
2023-02-27T23:33:16.647Z,100.00
2023-02-27T23:35:43.321Z,100.00
2023-02-27T23:38:09.694Z,100.00
2023-02-27T23:40:36.245Z,99.84
2023-02-27T23:43:02.571Z,100.00
2023-02-27T23:45:29.186Z,100.00
2023-02-27T23:47:56.358Z,100.00
2023-02-27T23:50:24.645Z,99.75
2023-02-27T23:52:52.102Z,97.56
2023-02-27T23:55:19.016Z,95.96
2023-02-27T23:57:45.450Z,94.79
